Auburn Township, Ohio
Current Conditions -  °F | °C
As of 5:19 AM on Friday 31 Oct 2014 (Local Time) from KPOV Reporting Station
Overcast Overcast  
Wind Chill: 42°   Ceiling: 5000
Heat Index: 42°   Visibility: 10mi
Dew Point: 34°   Wind: 0mph
Humidity: 72%   Direction: NA
Pressure: 29.96"   Gusts: NA
Location:  41.2966°N, 81.2269°W
Report Text: KPOV 310919Z AUTO 00000KT 10SM OVC050 06/01 A2996 RMK AO2 T00580011
Loading
Personal Weather Stations






























Interactive Weather Map New forecast layout! Learn more

10-Day Weather Forecast

Advertisements
Track Severe Weather on mobile